sensor_id;sensor_type;location;lat;lon;timestamp;P1;durP1;ratioP1;P2;durP2;ratioP2
27201;SDS011;14717;46.924;15.474;2023-03-11T00:02:08;4.68;;;2.47;;
27201;SDS011;14717;46.924;15.474;2023-03-11T00:04:35;4.68;;;2.63;;
27201;SDS011;14717;46.924;15.474;2023-03-11T00:07:00;5.60;;;2.90;;
27201;SDS011;14717;46.924;15.474;2023-03-11T00:09:26;5.53;;;2.72;;
27201;SDS011;14717;46.924;15.474;2023-03-11T00:11:51;4.60;;;2.50;;
27201;SDS011;14717;46.924;15.474;2023-03-11T00:14:17;5.57;;;2.25;;
27201;SDS011;14717;46.924;15.474;2023-03-11T00:16:42;4.15;;;2.30;;
27201;SDS011;14717;46.924;15.474;2023-03-11T00:19:08;4.60;;;2.40;;
27201;SDS011;14717;46.924;15.474;2023-03-11T00:21:34;4.32;;;2.08;;
27201;SDS011;14717;46.924;15.474;2023-03-11T00:24:00;7.55;;;3.03;;
27201;SDS011;14717;46.924;15.474;2023-03-11T00:26:27;3.83;;;2.33;;
27201;SDS011;14717;46.924;15.474;2023-03-11T00:28:53;4.57;;;2.22;;
27201;SDS011;14717;46.924;15.474;2023-03-11T00:31:19;5.35;;;2.30;;
27201;SDS011;14717;46.924;15.474;2023-03-11T00:33:45;4.10;;;2.00;;
27201;SDS011;14717;46.924;15.474;2023-03-11T00:36:24;6.80;;;2.17;;
27201;SDS011;14717;46.924;15.474;2023-03-11T00:38:55;3.63;;;2.25;;
27201;SDS011;14717;46.924;15.474;2023-03-11T00:41:21;5.43;;;2.20;;
27201;SDS011;14717;46.924;15.474;2023-03-11T00:43:47;3.70;;;2.13;;
27201;SDS011;14717;46.924;15.474;2023-03-11T00:46:12;3.60;;;2.00;;
27201;SDS011;14717;46.924;15.474;2023-03-11T00:48:37;4.50;;;2.10;;
27201;SDS011;14717;46.924;15.474;2023-03-11T00:51:03;4.32;;;2.33;;
27201;SDS011;14717;46.924;15.474;2023-03-11T00:53:30;4.65;;;2.22;;
27201;SDS011;14717;46.924;15.474;2023-03-11T00:55:55;4.45;;;2.50;;
27201;SDS011;14717;46.924;15.474;2023-03-11T00:58:21;4.90;;;2.78;;
27201;SDS011;14717;46.924;15.474;2023-03-11T01:00:51;8.32;;;3.67;;
27201;SDS011;14717;46.924;15.474;2023-03-11T01:03:16;5.35;;;3.17;;
27201;SDS011;14717;46.924;15.474;2023-03-11T01:05:42;5.38;;;3.05;;
27201;SDS011;14717;46.924;15.474;2023-03-11T01:08:07;5.18;;;2.33;;
27201;SDS011;14717;46.924;15.474;2023-03-11T01:10:33;7.10;;;2.78;;
27201;SDS011;14717;46.924;15.474;2023-03-11T01:12:59;7.15;;;2.88;;
27201;SDS011;14717;46.924;15.474;2023-03-11T01:15:27;6.60;;;2.60;;
27201;SDS011;14717;46.924;15.474;2023-03-11T01:17:54;4.72;;;2.80;;
27201;SDS011;14717;46.924;15.474;2023-03-11T01:20:20;4.50;;;2.70;;
27201;SDS011;14717;46.924;15.474;2023-03-11T01:22:45;5.78;;;2.88;;
27201;SDS011;14717;46.924;15.474;2023-03-11T01:25:14;7.50;;;4.07;;
27201;SDS011;14717;46.924;15.474;2023-03-11T01:27:40;8.45;;;4.13;;
27201;SDS011;14717;46.924;15.474;2023-03-11T01:30:06;12.10;;;4.43;;
27201;SDS011;14717;46.924;15.474;2023-03-11T01:32:33;8.02;;;4.43;;
27201;SDS011;14717;46.924;15.474;2023-03-11T01:34:58;6.53;;;4.38;;
27201;SDS011;14717;46.924;15.474;2023-03-11T01:37:23;9.68;;;4.72;;
27201;SDS011;14717;46.924;15.474;2023-03-11T01:39:49;8.13;;;4.70;;
27201;SDS011;14717;46.924;15.474;2023-03-11T01:42:14;9.32;;;4.55;;
27201;SDS011;14717;46.924;15.474;2023-03-11T01:44:40;9.57;;;4.97;;
27201;SDS011;14717;46.924;15.474;2023-03-11T01:49:33;9.48;;;4.72;;
27201;SDS011;14717;46.924;15.474;2023-03-11T01:52:02;9.30;;;5.03;;
27201;SDS011;14717;46.924;15.474;2023-03-11T01:54:35;8.32;;;5.00;;
27201;SDS011;14717;46.924;15.474;2023-03-11T01:57:04;8.75;;;4.40;;
27201;SDS011;14717;46.924;15.474;2023-03-11T01:59:32;8.40;;;4.50;;
27201;SDS011;14717;46.924;15.474;2023-03-11T02:04:48;8.35;;;4.60;;
27201;SDS011;14717;46.924;15.474;2023-03-11T02:07:15;10.07;;;4.88;;
27201;SDS011;14717;46.924;15.474;2023-03-11T02:09:41;9.05;;;4.45;;
27201;SDS011;14717;46.924;15.474;2023-03-11T02:12:06;13.10;;;5.07;;
27201;SDS011;14717;46.924;15.474;2023-03-11T02:14:35;8.27;;;4.57;;
27201;SDS011;14717;46.924;15.474;2023-03-11T02:17:04;7.80;;;4.40;;
27201;SDS011;14717;46.924;15.474;2023-03-11T02:22:21;10.93;;;4.22;;
27201;SDS011;14717;46.924;15.474;2023-03-11T02:25:10;10.07;;;4.72;;
27201;SDS011;14717;46.924;15.474;2023-03-11T02:27:39;9.48;;;4.40;;
27201;SDS011;14717;46.924;15.474;2023-03-11T02:30:08;6.85;;;4.50;;
27201;SDS011;14717;46.924;15.474;2023-03-11T02:32:36;9.55;;;4.40;;
27201;SDS011;14717;46.924;15.474;2023-03-11T02:35:03;8.10;;;4.57;;
27201;SDS011;14717;46.924;15.474;2023-03-11T02:37:28;10.95;;;4.47;;
27201;SDS011;14717;46.924;15.474;2023-03-11T02:39:54;15.15;;;5.47;;
27201;SDS011;14717;46.924;15.474;2023-03-11T02:42:39;9.45;;;4.80;;
27201;SDS011;14717;46.924;15.474;2023-03-11T02:45:07;7.28;;;4.03;;
27201;SDS011;14717;46.924;15.474;2023-03-11T02:47:34;8.55;;;4.57;;
27201;SDS011;14717;46.924;15.474;2023-03-11T02:50:03;7.80;;;4.10;;
27201;SDS011;14717;46.924;15.474;2023-03-11T02:52:33;7.50;;;4.25;;
27201;SDS011;14717;46.924;15.474;2023-03-11T02:55:00;7.07;;;4.18;;
27201;SDS011;14717;46.924;15.474;2023-03-11T02:57:25;6.57;;;4.47;;
27201;SDS011;14717;46.924;15.474;2023-03-11T02:59:51;7.55;;;4.13;;
27201;SDS011;14717;46.924;15.474;2023-03-11T03:02:16;7.95;;;4.22;;
27201;SDS011;14717;46.924;15.474;2023-03-11T03:04:42;8.10;;;4.57;;
27201;SDS011;14717;46.924;15.474;2023-03-11T03:07:08;6.97;;;4.25;;
27201;SDS011;14717;46.924;15.474;2023-03-11T03:09:33;7.43;;;4.53;;
27201;SDS011;14717;46.924;15.474;2023-03-11T03:11:59;9.60;;;4.70;;
27201;SDS011;14717;46.924;15.474;2023-03-11T03:14:25;10.00;;;4.82;;
27201;SDS011;14717;46.924;15.474;2023-03-11T03:16:50;16.75;;;6.97;;
27201;SDS011;14717;46.924;15.474;2023-03-11T03:19:16;44.63;;;14.70;;
27201;SDS011;14717;46.924;15.474;2023-03-11T03:21:41;14.80;;;6.60;;
27201;SDS011;14717;46.924;15.474;2023-03-11T03:24:07;46.22;;;14.15;;
27201;SDS011;14717;46.924;15.474;2023-03-11T03:26:32;63.75;;;18.33;;
27201;SDS011;14717;46.924;15.474;2023-03-11T03:28:57;54.30;;;16.95;;
27201;SDS011;14717;46.924;15.474;2023-03-11T03:31:23;59.33;;;19.35;;
27201;SDS011;14717;46.924;15.474;2023-03-11T03:33:48;40.83;;;14.15;;
27201;SDS011;14717;46.924;15.474;2023-03-11T03:36:14;28.60;;;9.90;;
27201;SDS011;14717;46.924;15.474;2023-03-11T03:38:39;31.55;;;9.65;;
27201;SDS011;14717;46.924;15.474;2023-03-11T03:41:05;14.38;;;6.53;;
27201;SDS011;14717;46.924;15.474;2023-03-11T03:43:30;17.02;;;6.88;;
27201;SDS011;14717;46.924;15.474;2023-03-11T03:46:00;16.52;;;6.68;;
27201;SDS011;14717;46.924;15.474;2023-03-11T03:48:27;13.00;;;6.32;;
27201;SDS011;14717;46.924;15.474;2023-03-11T03:50:53;13.05;;;5.35;;
27201;SDS011;14717;46.924;15.474;2023-03-11T03:53:18;9.82;;;5.50;;
27201;SDS011;14717;46.924;15.474;2023-03-11T03:55:43;9.23;;;4.88;;
27201;SDS011;14717;46.924;15.474;2023-03-11T03:58:09;10.07;;;5.65;;
27201;SDS011;14717;46.924;15.474;2023-03-11T04:00:34;12.93;;;5.07;;
27201;SDS011;14717;46.924;15.474;2023-03-11T04:03:00;10.35;;;5.40;;
27201;SDS011;14717;46.924;15.474;2023-03-11T04:05:26;12.82;;;5.28;;
27201;SDS011;14717;46.924;15.474;2023-03-11T04:07:52;11.50;;;4.72;;
27201;SDS011;14717;46.924;15.474;2023-03-11T04:10:18;10.10;;;5.20;;
27201;SDS011;14717;46.924;15.474;2023-03-11T04:12:43;9.38;;;4.32;;
27201;SDS011;14717;46.924;15.474;2023-03-11T04:15:09;8.50;;;3.70;;
27201;SDS011;14717;46.924;15.474;2023-03-11T04:17:35;12.07;;;4.65;;
27201;SDS011;14717;46.924;15.474;2023-03-11T04:20:00;9.05;;;4.15;;
27201;SDS011;14717;46.924;15.474;2023-03-11T04:22:26;7.82;;;4.30;;
27201;SDS011;14717;46.924;15.474;2023-03-11T04:24:51;9.43;;;4.43;;
27201;SDS011;14717;46.924;15.474;2023-03-11T04:27:16;8.15;;;4.30;;
27201;SDS011;14717;46.924;15.474;2023-03-11T04:29:42;10.25;;;4.10;;
27201;SDS011;14717;46.924;15.474;2023-03-11T04:32:07;27.92;;;5.03;;
27201;SDS011;14717;46.924;15.474;2023-03-11T04:34:33;5.57;;;3.03;;
27201;SDS011;14717;46.924;15.474;2023-03-11T04:36:58;4.80;;;2.67;;
27201;SDS011;14717;46.924;15.474;2023-03-11T04:39:23;4.43;;;2.50;;
27201;SDS011;14717;46.924;15.474;2023-03-11T04:41:49;4.80;;;2.63;;
27201;SDS011;14717;46.924;15.474;2023-03-11T04:44:14;4.72;;;2.65;;
27201;SDS011;14717;46.924;15.474;2023-03-11T04:46:40;3.88;;;2.33;;
27201;SDS011;14717;46.924;15.474;2023-03-11T04:49:05;5.43;;;2.20;;
27201;SDS011;14717;46.924;15.474;2023-03-11T04:51:30;5.30;;;1.98;;
27201;SDS011;14717;46.924;15.474;2023-03-11T04:53:56;4.43;;;1.77;;
27201;SDS011;14717;46.924;15.474;2023-03-11T04:56:21;2.83;;;1.50;;
27201;SDS011;14717;46.924;15.474;2023-03-11T04:58:46;4.88;;;1.20;;
27201;SDS011;14717;46.924;15.474;2023-03-11T05:01:12;3.20;;;1.38;;
27201;SDS011;14717;46.924;15.474;2023-03-11T05:03:37;3.42;;;1.15;;
27201;SDS011;14717;46.924;15.474;2023-03-11T05:06:02;1.30;;;0.90;;
27201;SDS011;14717;46.924;15.474;2023-03-11T05:08:28;1.75;;;1.00;;
27201;SDS011;14717;46.924;15.474;2023-03-11T05:10:53;1.70;;;0.82;;
27201;SDS011;14717;46.924;15.474;2023-03-11T05:13:19;1.55;;;0.90;;
27201;SDS011;14717;46.924;15.474;2023-03-11T05:18:11;1.08;;;0.60;;
27201;SDS011;14717;46.924;15.474;2023-03-11T05:20:36;1.10;;;0.85;;
27201;SDS011;14717;46.924;15.474;2023-03-11T05:23:02;1.50;;;0.63;;
27201;SDS011;14717;46.924;15.474;2023-03-11T05:25:27;0.80;;;0.50;;
27201;SDS011;14717;46.924;15.474;2023-03-11T05:27:52;1.38;;;0.70;;
27201;SDS011;14717;46.924;15.474;2023-03-11T05:30:18;1.52;;;0.70;;
27201;SDS011;14717;46.924;15.474;2023-03-11T05:32:43;0.80;;;0.57;;
27201;SDS011;14717;46.924;15.474;2023-03-11T05:35:08;1.55;;;0.40;;
27201;SDS011;14717;46.924;15.474;2023-03-11T05:37:34;0.73;;;0.40;;
27201;SDS011;14717;46.924;15.474;2023-03-11T05:40:01;0.35;;;0.30;;
27201;SDS011;14717;46.924;15.474;2023-03-11T05:42:30;0.10;;;0.10;;
27201;SDS011;14717;46.924;15.474;2023-03-11T05:44:55;0.10;;;0.10;;
27201;SDS011;14717;46.924;15.474;2023-03-11T05:47:21;0.32;;;0.08;;
27201;SDS011;14717;46.924;15.474;2023-03-11T05:49:46;0.17;;;0.10;;
27201;SDS011;14717;46.924;15.474;2023-03-11T05:52:12;0.57;;;0.10;;
27201;SDS011;14717;46.924;15.474;2023-03-11T05:54:38;0.28;;;0.10;;
27201;SDS011;14717;46.924;15.474;2023-03-11T05:57:03;0.38;;;0.17;;
27201;SDS011;14717;46.924;15.474;2023-03-11T05:59:29;0.30;;;0.20;;
27201;SDS011;14717;46.924;15.474;2023-03-11T06:01:56;0.45;;;0.40;;
27201;SDS011;14717;46.924;15.474;2023-03-11T06:04:22;0.30;;;0.30;;
27201;SDS011;14717;46.924;15.474;2023-03-11T06:06:47;0.40;;;0.30;;
27201;SDS011;14717;46.924;15.474;2023-03-11T06:09:13;0.30;;;0.30;;
27201;SDS011;14717;46.924;15.474;2023-03-11T06:11:39;0.20;;;0.20;;
27201;SDS011;14717;46.924;15.474;2023-03-11T06:14:04;0.93;;;0.25;;
27201;SDS011;14717;46.924;15.474;2023-03-11T06:16:30;0.52;;;0.20;;
27201;SDS011;14717;46.924;15.474;2023-03-11T06:18:55;1.42;;;0.50;;
27201;SDS011;14717;46.924;15.474;2023-03-11T06:21:22;0.52;;;0.43;;
27201;SDS011;14717;46.924;15.474;2023-03-11T06:23:48;0.30;;;0.20;;
27201;SDS011;14717;46.924;15.474;2023-03-11T06:26:15;0.38;;;0.28;;
27201;SDS011;14717;46.924;15.474;2023-03-11T06:28:43;0.63;;;0.40;;
27201;SDS011;14717;46.924;15.474;2023-03-11T06:33:35;1.55;;;0.60;;
27201;SDS011;14717;46.924;15.474;2023-03-11T06:36:01;0.65;;;0.35;;
27201;SDS011;14717;46.924;15.474;2023-03-11T06:38:28;2.42;;;0.60;;
27201;SDS011;14717;46.924;15.474;2023-03-11T06:40:53;1.10;;;0.60;;
27201;SDS011;14717;46.924;15.474;2023-03-11T06:43:23;1.08;;;0.50;;
27201;SDS011;14717;46.924;15.474;2023-03-11T06:45:48;1.23;;;0.80;;
27201;SDS011;14717;46.924;15.474;2023-03-11T06:48:14;1.83;;;0.30;;
27201;SDS011;14717;46.924;15.474;2023-03-11T06:50:39;0.35;;;0.30;;
27201;SDS011;14717;46.924;15.474;2023-03-11T06:53:04;0.60;;;0.40;;
27201;SDS011;14717;46.924;15.474;2023-03-11T06:55:33;0.40;;;0.30;;
27201;SDS011;14717;46.924;15.474;2023-03-11T06:57:59;1.17;;;0.40;;
27201;SDS011;14717;46.924;15.474;2023-03-11T07:00:25;0.43;;;0.30;;
27201;SDS011;14717;46.924;15.474;2023-03-11T07:02:50;1.00;;;0.35;;
27201;SDS011;14717;46.924;15.474;2023-03-11T07:05:16;0.52;;;0.40;;
27201;SDS011;14717;46.924;15.474;2023-03-11T07:07:42;2.33;;;2.13;;
27201;SDS011;14717;46.924;15.474;2023-03-11T07:10:07;0.50;;;0.50;;
27201;SDS011;14717;46.924;15.474;2023-03-11T07:12:33;1.52;;;0.45;;
27201;SDS011;14717;46.924;15.474;2023-03-11T07:14:59;0.90;;;0.38;;
27201;SDS011;14717;46.924;15.474;2023-03-11T07:17:25;0.60;;;0.40;;
27201;SDS011;14717;46.924;15.474;2023-03-11T07:19:51;1.15;;;0.20;;
27201;SDS011;14717;46.924;15.474;2023-03-11T07:22:17;0.57;;;0.30;;
27201;SDS011;14717;46.924;15.474;2023-03-11T07:24:46;1.23;;;0.45;;
27201;SDS011;14717;46.924;15.474;2023-03-11T07:27:13;0.55;;;0.32;;
27201;SDS011;14717;46.924;15.474;2023-03-11T07:29:38;1.25;;;0.70;;
27201;SDS011;14717;46.924;15.474;2023-03-11T07:32:05;8.50;;;3.90;;
27201;SDS011;14717;46.924;15.474;2023-03-11T07:34:32;10.70;;;4.40;;
27201;SDS011;14717;46.924;15.474;2023-03-11T07:36:58;2.35;;;1.23;;
27201;SDS011;14717;46.924;15.474;2023-03-11T07:39:23;2.45;;;1.42;;
27201;SDS011;14717;46.924;15.474;2023-03-11T07:41:49;3.58;;;1.70;;
27201;SDS011;14717;46.924;15.474;2023-03-11T07:44:14;2.42;;;1.30;;
27201;SDS011;14717;46.924;15.474;2023-03-11T07:46:41;1.65;;;1.05;;
27201;SDS011;14717;46.924;15.474;2023-03-11T07:49:07;0.85;;;0.60;;
27201;SDS011;14717;46.924;15.474;2023-03-11T07:51:33;1.25;;;0.90;;
27201;SDS011;14717;46.924;15.474;2023-03-11T07:54:00;0.70;;;0.63;;
27201;SDS011;14717;46.924;15.474;2023-03-11T07:56:30;3.22;;;1.55;;
27201;SDS011;14717;46.924;15.474;2023-03-11T07:58:57;3.03;;;1.52;;
27201;SDS011;14717;46.924;15.474;2023-03-11T08:01:25;1.30;;;1.00;;
27201;SDS011;14717;46.924;15.474;2023-03-11T08:03:54;2.53;;;1.20;;
27201;SDS011;14717;46.924;15.474;2023-03-11T08:06:23;4.10;;;1.40;;
27201;SDS011;14717;46.924;15.474;2023-03-11T08:08:50;0.93;;;0.52;;
27201;SDS011;14717;46.924;15.474;2023-03-11T08:11:18;1.13;;;0.80;;
27201;SDS011;14717;46.924;15.474;2023-03-11T08:13:45;0.52;;;0.22;;
27201;SDS011;14717;46.924;15.474;2023-03-11T08:16:12;0.63;;;0.35;;
27201;SDS011;14717;46.924;15.474;2023-03-11T08:18:39;0.30;;;0.25;;
27201;SDS011;14717;46.924;15.474;2023-03-11T08:21:08;1.00;;;0.40;;
27201;SDS011;14717;46.924;15.474;2023-03-11T08:23:36;0.43;;;0.30;;
27201;SDS011;14717;46.924;15.474;2023-03-11T08:26:02;1.23;;;0.55;;
27201;SDS011;14717;46.924;15.474;2023-03-11T08:28:35;0.43;;;0.30;;
27201;SDS011;14717;46.924;15.474;2023-03-11T08:31:01;1.58;;;0.75;;
27201;SDS011;14717;46.924;15.474;2023-03-11T08:35:53;3.63;;;0.85;;
27201;SDS011;14717;46.924;15.474;2023-03-11T08:38:18;1.30;;;0.85;;
27201;SDS011;14717;46.924;15.474;2023-03-11T08:40:44;0.55;;;0.43;;
27201;SDS011;14717;46.924;15.474;2023-03-11T08:43:12;0.95;;;0.55;;
27201;SDS011;14717;46.924;15.474;2023-03-11T08:45:39;1.20;;;0.52;;
27201;SDS011;14717;46.924;15.474;2023-03-11T08:48:05;0.22;;;0.20;;
27201;SDS011;14717;46.924;15.474;2023-03-11T08:50:33;0.93;;;0.77;;
27201;SDS011;14717;46.924;15.474;2023-03-11T08:52:58;0.38;;;0.25;;
27201;SDS011;14717;46.924;15.474;2023-03-11T08:55:27;1.05;;;0.52;;
27201;SDS011;14717;46.924;15.474;2023-03-11T08:57:53;0.30;;;0.28;;
27201;SDS011;14717;46.924;15.474;2023-03-11T09:00:18;1.90;;;1.02;;
27201;SDS011;14717;46.924;15.474;2023-03-11T09:02:44;0.35;;;0.20;;
27201;SDS011;14717;46.924;15.474;2023-03-11T09:05:09;0.30;;;0.13;;
27201;SDS011;14717;46.924;15.474;2023-03-11T09:07:35;0.28;;;0.10;;
27201;SDS011;14717;46.924;15.474;2023-03-11T09:10:00;0.55;;;0.30;;
27201;SDS011;14717;46.924;15.474;2023-03-11T09:12:26;4.97;;;0.88;;
27201;SDS011;14717;46.924;15.474;2023-03-11T09:14:52;0.15;;;0.15;;
27201;SDS011;14717;46.924;15.474;2023-03-11T09:17:19;0.65;;;0.25;;
27201;SDS011;14717;46.924;15.474;2023-03-11T09:19:44;0.50;;;0.25;;
27201;SDS011;14717;46.924;15.474;2023-03-11T09:22:09;0.10;;;0.10;;
27201;SDS011;14717;46.924;15.474;2023-03-11T09:24:35;0.10;;;0.10;;
27201;SDS011;14717;46.924;15.474;2023-03-11T09:27:01;0.73;;;0.28;;
27201;SDS011;14717;46.924;15.474;2023-03-11T09:29:26;0.80;;;0.20;;
27201;SDS011;14717;46.924;15.474;2023-03-11T09:31:52;0.63;;;0.30;;
27201;SDS011;14717;46.924;15.474;2023-03-11T09:34:18;0.15;;;0.15;;
27201;SDS011;14717;46.924;15.474;2023-03-11T09:36:43;0.20;;;0.13;;
27201;SDS011;14717;46.924;15.474;2023-03-11T09:39:09;0.15;;;0.15;;
27201;SDS011;14717;46.924;15.474;2023-03-11T09:41:38;0.35;;;0.20;;
27201;SDS011;14717;46.924;15.474;2023-03-11T09:44:17;0.10;;;0.10;;
27201;SDS011;14717;46.924;15.474;2023-03-11T09:47:16;0.57;;;0.30;;
27201;SDS011;14717;46.924;15.474;2023-03-11T09:50:52;0.20;;;0.20;;
27201;SDS011;14717;46.924;15.474;2023-03-11T09:53:42;0.52;;;0.20;;
27201;SDS011;14717;46.924;15.474;2023-03-11T09:56:12;0.32;;;0.10;;
27201;SDS011;14717;46.924;15.474;2023-03-11T10:03:45;0.50;;;0.20;;
27201;SDS011;14717;46.924;15.474;2023-03-11T10:11:45;0.38;;;0.30;;
27201;SDS011;14717;46.924;15.474;2023-03-11T10:14:47;1.35;;;0.30;;
27201;SDS011;14717;46.924;15.474;2023-03-11T10:17:38;0.13;;;0.13;;
27201;SDS011;14717;46.924;15.474;2023-03-11T10:25:29;3.53;;;0.20;;
27201;SDS011;14717;46.924;15.474;2023-03-11T10:28:17;0.10;;;0.00;;
27201;SDS011;14717;46.924;15.474;2023-03-11T10:30:49;0.32;;;0.17;;
27201;SDS011;14717;46.924;15.474;2023-03-11T10:33:33;0.28;;;0.15;;
27201;SDS011;14717;46.924;15.474;2023-03-11T10:36:04;0.40;;;0.25;;
27201;SDS011;14717;46.924;15.474;2023-03-11T10:38:41;0.30;;;0.30;;
27201;SDS011;14717;46.924;15.474;2023-03-11T10:41:22;0.20;;;0.20;;
27201;SDS011;14717;46.924;15.474;2023-03-11T10:43:59;0.15;;;0.13;;
27201;SDS011;14717;46.924;15.474;2023-03-11T10:46:28;1.25;;;0.20;;
27201;SDS011;14717;46.924;15.474;2023-03-11T10:48:54;0.32;;;0.20;;
27201;SDS011;14717;46.924;15.474;2023-03-11T10:54:05;0.28;;;0.22;;
27201;SDS011;14717;46.924;15.474;2023-03-11T10:59:01;0.32;;;0.10;;
27201;SDS011;14717;46.924;15.474;2023-03-11T11:01:28;0.32;;;0.20;;
27201;SDS011;14717;46.924;15.474;2023-03-11T11:03:54;0.30;;;0.13;;
27201;SDS011;14717;46.924;15.474;2023-03-11T11:09:12;0.35;;;0.30;;
27201;SDS011;14717;46.924;15.474;2023-03-11T11:11:40;0.40;;;0.25;;
27201;SDS011;14717;46.924;15.474;2023-03-11T11:14:05;0.20;;;0.20;;
27201;SDS011;14717;46.924;15.474;2023-03-11T11:16:33;0.32;;;0.20;;
27201;SDS011;14717;46.924;15.474;2023-03-11T11:19:11;0.43;;;0.20;;
27201;SDS011;14717;46.924;15.474;2023-03-11T11:21:42;0.43;;;0.15;;
27201;SDS011;14717;46.924;15.474;2023-03-11T11:29:30;2.05;;;0.30;;
27201;SDS011;14717;46.924;15.474;2023-03-11T11:34:51;1.05;;;0.35;;
27201;SDS011;14717;46.924;15.474;2023-03-11T11:37:25;1.17;;;0.50;;
27201;SDS011;14717;46.924;15.474;2023-03-11T11:40:00;0.10;;;0.10;;
27201;SDS011;14717;46.924;15.474;2023-03-11T11:42:37;0.75;;;0.10;;
27201;SDS011;14717;46.924;15.474;2023-03-11T11:45:09;0.40;;;0.40;;
27201;SDS011;14717;46.924;15.474;2023-03-11T11:50:10;0.40;;;0.20;;
27201;SDS011;14717;46.924;15.474;2023-03-11T11:52:41;0.28;;;0.28;;
27201;SDS011;14717;46.924;15.474;2023-03-11T11:55:19;0.20;;;0.20;;
27201;SDS011;14717;46.924;15.474;2023-03-11T11:57:47;0.50;;;0.20;;
27201;SDS011;14717;46.924;15.474;2023-03-11T12:00:16;1.15;;;0.20;;
27201;SDS011;14717;46.924;15.474;2023-03-11T12:03:10;0.95;;;0.20;;
27201;SDS011;14717;46.924;15.474;2023-03-11T12:05:59;0.55;;;0.25;;
27201;SDS011;14717;46.924;15.474;2023-03-11T12:11:07;0.30;;;0.30;;
27201;SDS011;14717;46.924;15.474;2023-03-11T12:26:41;0.22;;;0.20;;
27201;SDS011;14717;46.924;15.474;2023-03-11T12:29:56;0.10;;;0.10;;
27201;SDS011;14717;46.924;15.474;2023-03-11T12:32:01;0.50;;;0.40;;
27201;SDS011;14717;46.924;15.474;2023-03-11T12:36:53;0.40;;;0.15;;
27201;SDS011;14717;46.924;15.474;2023-03-11T12:39:26;0.13;;;0.13;;
27201;SDS011;14717;46.924;15.474;2023-03-11T12:44:36;0.20;;;0.10;;
27201;SDS011;14717;46.924;15.474;2023-03-11T12:49:40;0.60;;;0.30;;
27201;SDS011;14717;46.924;15.474;2023-03-11T12:57:22;0.20;;;0.20;;
27201;SDS011;14717;46.924;15.474;2023-03-11T13:03:08;1.85;;;0.40;;
27201;SDS011;14717;46.924;15.474;2023-03-11T13:08:18;0.38;;;0.35;;
27201;SDS011;14717;46.924;15.474;2023-03-11T13:10:49;0.65;;;0.30;;
27201;SDS011;14717;46.924;15.474;2023-03-11T13:15:56;0.25;;;0.25;;
27201;SDS011;14717;46.924;15.474;2023-03-11T13:18:23;0.20;;;0.20;;
27201;SDS011;14717;46.924;15.474;2023-03-11T13:20:56;0.85;;;0.40;;
27201;SDS011;14717;46.924;15.474;2023-03-11T13:23:35;0.55;;;0.40;;
27201;SDS011;14717;46.924;15.474;2023-03-11T13:42:48;0.63;;;0.40;;
27201;SDS011;14717;46.924;15.474;2023-03-11T13:45:21;1.65;;;0.32;;
27201;SDS011;14717;46.924;15.474;2023-03-11T13:47:51;0.38;;;0.30;;
27201;SDS011;14717;46.924;15.474;2023-03-11T13:50:25;0.10;;;0.10;;
27201;SDS011;14717;46.924;15.474;2023-03-11T13:52:59;0.28;;;0.28;;
27201;SDS011;14717;46.924;15.474;2023-03-11T13:55:33;0.32;;;0.30;;
27201;SDS011;14717;46.924;15.474;2023-03-11T13:58:01;0.75;;;0.40;;
27201;SDS011;14717;46.924;15.474;2023-03-11T14:00:45;0.32;;;0.30;;
27201;SDS011;14717;46.924;15.474;2023-03-11T14:03:12;0.30;;;0.30;;
27201;SDS011;14717;46.924;15.474;2023-03-11T14:05:42;0.80;;;0.52;;
27201;SDS011;14717;46.924;15.474;2023-03-11T14:08:31;1.05;;;0.20;;
27201;SDS011;14717;46.924;15.474;2023-03-11T14:13:29;0.40;;;0.32;;
27201;SDS011;14717;46.924;15.474;2023-03-11T14:18:37;0.50;;;0.20;;
27201;SDS011;14717;46.924;15.474;2023-03-11T14:21:11;0.30;;;0.30;;
27201;SDS011;14717;46.924;15.474;2023-03-11T14:23:40;0.25;;;0.10;;
27201;SDS011;14717;46.924;15.474;2023-03-11T14:26:17;0.10;;;0.10;;
27201;SDS011;14717;46.924;15.474;2023-03-11T14:28:44;0.80;;;0.22;;
27201;SDS011;14717;46.924;15.474;2023-03-11T14:31:23;0.45;;;0.20;;
27201;SDS011;14717;46.924;15.474;2023-03-11T14:33:54;0.55;;;0.25;;
27201;SDS011;14717;46.924;15.474;2023-03-11T14:36:21;0.50;;;0.30;;
27201;SDS011;14717;46.924;15.474;2023-03-11T14:38:46;0.55;;;0.20;;
27201;SDS011;14717;46.924;15.474;2023-03-11T14:41:12;0.10;;;0.10;;
27201;SDS011;14717;46.924;15.474;2023-03-11T14:43:39;0.40;;;0.25;;
27201;SDS011;14717;46.924;15.474;2023-03-11T14:46:09;0.20;;;0.20;;
27201;SDS011;14717;46.924;15.474;2023-03-11T14:48:42;0.63;;;0.30;;
27201;SDS011;14717;46.924;15.474;2023-03-11T14:51:18;0.30;;;0.30;;
27201;SDS011;14717;46.924;15.474;2023-03-11T14:53:55;0.10;;;0.10;;
27201;SDS011;14717;46.924;15.474;2023-03-11T14:56:30;0.47;;;0.20;;
27201;SDS011;14717;46.924;15.474;2023-03-11T14:59:11;0.40;;;0.40;;
27201;SDS011;14717;46.924;15.474;2023-03-11T15:01:50;0.25;;;0.20;;
27201;SDS011;14717;46.924;15.474;2023-03-11T15:06:55;4.95;;;0.95;;
27201;SDS011;14717;46.924;15.474;2023-03-11T15:09:21;2.13;;;0.93;;
27201;SDS011;14717;46.924;15.474;2023-03-11T15:11:48;1.15;;;0.60;;
27201;SDS011;14717;46.924;15.474;2023-03-11T15:14:20;0.38;;;0.30;;
27201;SDS011;14717;46.924;15.474;2023-03-11T15:16:49;2.38;;;0.40;;
27201;SDS011;14717;46.924;15.474;2023-03-11T15:19:22;0.40;;;0.40;;
27201;SDS011;14717;46.924;15.474;2023-03-11T15:21:48;0.68;;;0.22;;
27201;SDS011;14717;46.924;15.474;2023-03-11T15:24:19;0.98;;;0.35;;
27201;SDS011;14717;46.924;15.474;2023-03-11T15:27:03;0.30;;;0.30;;
27201;SDS011;14717;46.924;15.474;2023-03-11T15:29:30;0.60;;;0.30;;
27201;SDS011;14717;46.924;15.474;2023-03-11T15:31:57;0.28;;;0.28;;
27201;SDS011;14717;46.924;15.474;2023-03-11T15:34:30;2.17;;;0.38;;
27201;SDS011;14717;46.924;15.474;2023-03-11T15:36:57;1.30;;;0.30;;
27201;SDS011;14717;46.924;15.474;2023-03-11T15:44:39;0.55;;;0.35;;
27201;SDS011;14717;46.924;15.474;2023-03-11T15:47:16;0.50;;;0.50;;
27201;SDS011;14717;46.924;15.474;2023-03-11T15:49:43;0.63;;;0.50;;
27201;SDS011;14717;46.924;15.474;2023-03-11T15:52:09;0.30;;;0.20;;
27201;SDS011;14717;46.924;15.474;2023-03-11T15:54:35;0.40;;;0.40;;
27201;SDS011;14717;46.924;15.474;2023-03-11T15:57:03;0.17;;;0.17;;
27201;SDS011;14717;46.924;15.474;2023-03-11T15:59:31;0.20;;;0.20;;
27201;SDS011;14717;46.924;15.474;2023-03-11T16:01:58;0.30;;;0.20;;
27201;SDS011;14717;46.924;15.474;2023-03-11T16:04:23;0.73;;;0.40;;
27201;SDS011;14717;46.924;15.474;2023-03-11T16:06:49;0.32;;;0.32;;
27201;SDS011;14717;46.924;15.474;2023-03-11T16:09:15;1.25;;;0.50;;
27201;SDS011;14717;46.924;15.474;2023-03-11T16:11:41;0.50;;;0.40;;
27201;SDS011;14717;46.924;15.474;2023-03-11T16:14:14;0.85;;;0.68;;
27201;SDS011;14717;46.924;15.474;2023-03-11T16:16:41;4.53;;;1.60;;
27201;SDS011;14717;46.924;15.474;2023-03-11T16:19:07;0.25;;;0.25;;
27201;SDS011;14717;46.924;15.474;2023-03-11T16:21:34;0.50;;;0.40;;
27201;SDS011;14717;46.924;15.474;2023-03-11T16:24:03;0.80;;;0.50;;
27201;SDS011;14717;46.924;15.474;2023-03-11T16:26:29;0.25;;;0.25;;
27201;SDS011;14717;46.924;15.474;2023-03-11T16:28:56;0.77;;;0.50;;
27201;SDS011;14717;46.924;15.474;2023-03-11T16:31:22;1.15;;;0.60;;
27201;SDS011;14717;46.924;15.474;2023-03-11T16:33:47;0.90;;;0.50;;
27201;SDS011;14717;46.924;15.474;2023-03-11T16:36:13;0.35;;;0.30;;
27201;SDS011;14717;46.924;15.474;2023-03-11T16:38:45;1.00;;;0.70;;